sensor_id;sensor_type;location;lat;lon;timestamp;pressure;altitude;pressure_sealevel;temperature;humidity
6565;BME280;3316;44.118;27.258;2022-08-01T00:01:36;100516.50;;;21.76;100.00
6565;BME280;3316;44.118;27.258;2022-08-01T00:04:01;100507.00;;;21.70;100.00
6565;BME280;3316;44.118;27.258;2022-08-01T00:06:27;100504.66;;;21.80;100.00
6565;BME280;3316;44.118;27.258;2022-08-01T00:08:53;100510.88;;;21.96;100.00
6565;BME280;3316;44.118;27.258;2022-08-01T00:11:18;100517.50;;;22.04;100.00
6565;BME280;3316;44.118;27.258;2022-08-01T00:13:44;100522.97;;;22.03;100.00
6565;BME280;3316;44.118;27.258;2022-08-01T00:16:09;100518.06;;;21.95;100.00
6565;BME280;3316;44.118;27.258;2022-08-01T00:18:35;100522.28;;;21.99;100.00
6565;BME280;3316;44.118;27.258;2022-08-01T00:21:04;100531.59;;;21.77;100.00
6565;BME280;3316;44.118;27.258;2022-08-01T00:23:30;100521.63;;;21.65;100.00
6565;BME280;3316;44.118;27.258;2022-08-01T00:25:56;100525.16;;;21.50;100.00
6565;BME280;3316;44.118;27.258;2022-08-01T00:28:22;100542.69;;;21.71;100.00
6565;BME280;3316;44.118;27.258;2022-08-01T00:30:47;100525.59;;;21.58;100.00
6565;BME280;3316;44.118;27.258;2022-08-01T00:33:12;100513.59;;;21.49;100.00
6565;BME280;3316;44.118;27.258;2022-08-01T00:35:38;100523.34;;;21.66;100.00
6565;BME280;3316;44.118;27.258;2022-08-01T00:38:03;100520.66;;;21.66;100.00
6565;BME280;3316;44.118;27.258;2022-08-01T00:40:29;100514.38;;;21.51;100.00
6565;BME280;3316;44.118;27.258;2022-08-01T00:42:54;100512.22;;;21.42;100.00
6565;BME280;3316;44.118;27.258;2022-08-01T00:45:20;100513.25;;;21.55;100.00
6565;BME280;3316;44.118;27.258;2022-08-01T00:47:45;100477.69;;;21.53;100.00
6565;BME280;3316;44.118;27.258;2022-08-01T00:50:11;100513.97;;;21.73;100.00
6565;BME280;3316;44.118;27.258;2022-08-01T00:52:39;100505.94;;;21.73;100.00
6565;BME280;3316;44.118;27.258;2022-08-01T00:55:05;100510.91;;;21.80;100.00
6565;BME280;3316;44.118;27.258;2022-08-01T00:57:31;100501.09;;;21.79;100.00
6565;BME280;3316;44.118;27.258;2022-08-01T00:59:57;100504.66;;;21.80;100.00
6565;BME280;3316;44.118;27.258;2022-08-01T01:02:22;100511.69;;;21.82;100.00
6565;BME280;3316;44.118;27.258;2022-08-01T01:04:48;100488.38;;;21.69;100.00
6565;BME280;3316;44.118;27.258;2022-08-01T01:07:35;100494.75;;;21.66;100.00
6565;BME280;3316;44.118;27.258;2022-08-01T01:10:30;100496.56;;;21.50;100.00
6565;BME280;3316;44.118;27.258;2022-08-01T01:13:06;100490.63;;;21.45;100.00
6565;BME280;3316;44.118;27.258;2022-08-01T01:15:41;100511.28;;;21.43;100.00
6565;BME280;3316;44.118;27.258;2022-08-01T01:20:46;100494.88;;;21.34;100.00
6565;BME280;3316;44.118;27.258;2022-08-01T01:27:06;100501.41;;;21.28;100.00
6565;BME280;3316;44.118;27.258;2022-08-01T01:32:06;100501.00;;;21.20;100.00
6565;BME280;3316;44.118;27.258;2022-08-01T01:34:36;100492.59;;;21.26;100.00
6565;BME280;3316;44.118;27.258;2022-08-01T01:37:04;100482.53;;;21.15;100.00
6565;BME280;3316;44.118;27.258;2022-08-01T01:39:32;100479.31;;;21.09;100.00
6565;BME280;3316;44.118;27.258;2022-08-01T01:42:00;100481.78;;;20.96;100.00
6565;BME280;3316;44.118;27.258;2022-08-01T01:44:27;100482.56;;;20.98;100.00
6565;BME280;3316;44.118;27.258;2022-08-01T01:46:53;100490.34;;;21.03;100.00
6565;BME280;3316;44.118;27.258;2022-08-01T01:49:25;100476.50;;;20.95;100.00
6565;BME280;3316;44.118;27.258;2022-08-01T01:51:54;100486.41;;;20.93;100.00
6565;BME280;3316;44.118;27.258;2022-08-01T01:54:22;100479.03;;;20.98;100.00
6565;BME280;3316;44.118;27.258;2022-08-01T01:56:50;100481.53;;;21.01;100.00
6565;BME280;3316;44.118;27.258;2022-08-01T01:59:25;100489.41;;;21.04;100.00
6565;BME280;3316;44.118;27.258;2022-08-01T02:01:54;100491.38;;;21.00;100.00
6565;BME280;3316;44.118;27.258;2022-08-01T02:04:21;100490.50;;;21.00;100.00
6565;BME280;3316;44.118;27.258;2022-08-01T02:06:50;100496.94;;;21.13;100.00
6565;BME280;3316;44.118;27.258;2022-08-01T02:09:20;100501.25;;;21.15;100.00
6565;BME280;3316;44.118;27.258;2022-08-01T02:11:47;100494.25;;;21.13;100.00
6565;BME280;3316;44.118;27.258;2022-08-01T02:14:14;100488.47;;;21.05;100.00
6565;BME280;3316;44.118;27.258;2022-08-01T02:16:43;100499.16;;;21.05;100.00
6565;BME280;3316;44.118;27.258;2022-08-01T02:19:09;100496.47;;;21.05;100.00
6565;BME280;3316;44.118;27.258;2022-08-01T02:21:47;100490.44;;;21.01;100.00
6565;BME280;3316;44.118;27.258;2022-08-01T02:26:47;100480.47;;;20.88;100.00
6565;BME280;3316;44.118;27.258;2022-08-01T02:29:16;100458.91;;;20.75;100.00
6565;BME280;3316;44.118;27.258;2022-08-01T02:31:46;100461.63;;;20.74;100.00
6565;BME280;3316;44.118;27.258;2022-08-01T02:34:17;100489.81;;;20.96;100.00
6565;BME280;3316;44.118;27.258;2022-08-01T02:36:45;100487.19;;;20.95;100.00
6565;BME280;3316;44.118;27.258;2022-08-01T02:39:13;100485.59;;;20.92;100.00
6565;BME280;3316;44.118;27.258;2022-08-01T02:41:46;100486.00;;;20.85;100.00
6565;BME280;3316;44.118;27.258;2022-08-01T02:44:23;100482.53;;;20.67;100.00
6565;BME280;3316;44.118;27.258;2022-08-01T02:46:52;100476.81;;;20.58;100.00
6565;BME280;3316;44.118;27.258;2022-08-01T02:49:20;100481.28;;;20.57;100.00
6565;BME280;3316;44.118;27.258;2022-08-01T02:51:48;100487.56;;;20.56;100.00
6565;BME280;3316;44.118;27.258;2022-08-01T02:54:17;100490.63;;;20.49;100.00
6565;BME280;3316;44.118;27.258;2022-08-01T02:56:44;100472.56;;;20.36;100.00
6565;BME280;3316;44.118;27.258;2022-08-01T02:59:15;100473.00;;;20.29;100.00
6565;BME280;3316;44.118;27.258;2022-08-01T03:01:42;100486.19;;;20.32;100.00
6565;BME280;3316;44.118;27.258;2022-08-01T03:04:11;100470.81;;;20.20;100.00
6565;BME280;3316;44.118;27.258;2022-08-01T03:06:38;100472.97;;;20.12;100.00
6565;BME280;3316;44.118;27.258;2022-08-01T03:09:04;100481.00;;;20.12;100.00
6565;BME280;3316;44.118;27.258;2022-08-01T03:11:32;100495.03;;;20.15;100.00
6565;BME280;3316;44.118;27.258;2022-08-01T03:14:01;100484.44;;;20.14;100.00
6565;BME280;3316;44.118;27.258;2022-08-01T03:16:27;100488.00;;;20.14;100.00
6565;BME280;3316;44.118;27.258;2022-08-01T03:18:54;100494.63;;;20.24;100.00
6565;BME280;3316;44.118;27.258;2022-08-01T03:21:23;100498.06;;;20.44;100.00
6565;BME280;3316;44.118;27.258;2022-08-01T03:23:50;100451.94;;;20.23;100.00
6565;BME280;3316;44.118;27.258;2022-08-01T03:26:17;100488.53;;;20.55;100.00
6565;BME280;3316;44.118;27.258;2022-08-01T03:28:44;100491.00;;;20.58;100.00
6565;BME280;3316;44.118;27.258;2022-08-01T03:31:13;100488.88;;;20.65;100.00
6565;BME280;3316;44.118;27.258;2022-08-01T03:33:39;100494.28;;;20.96;100.00
6565;BME280;3316;44.118;27.258;2022-08-01T03:36:08;100500.47;;;21.13;100.00
6565;BME280;3316;44.118;27.258;2022-08-01T03:38:37;100503.59;;;21.37;100.00
6565;BME280;3316;44.118;27.258;2022-08-01T03:41:11;100507.03;;;21.55;100.00
6565;BME280;3316;44.118;27.258;2022-08-01T03:43:45;100502.91;;;21.79;100.00
6565;BME280;3316;44.118;27.258;2022-08-01T03:46:18;100479.94;;;21.75;100.00
6565;BME280;3316;44.118;27.258;2022-08-01T03:48:48;100506.41;;;22.10;100.00
6565;BME280;3316;44.118;27.258;2022-08-01T03:51:14;100509.66;;;22.31;100.00
6565;BME280;3316;44.118;27.258;2022-08-01T03:53:42;100488.69;;;22.52;100.00
6565;BME280;3316;44.118;27.258;2022-08-01T03:56:10;100508.75;;;22.88;100.00
6565;BME280;3316;44.118;27.258;2022-08-01T03:58:41;100508.09;;;23.13;100.00
6565;BME280;3316;44.118;27.258;2022-08-01T04:01:08;100520.13;;;23.48;100.00
6565;BME280;3316;44.118;27.258;2022-08-01T04:03:37;100517.53;;;23.47;100.00
6565;BME280;3316;44.118;27.258;2022-08-01T04:06:07;100523.56;;;23.50;100.00
6565;BME280;3316;44.118;27.258;2022-08-01T04:08:37;100509.94;;;23.80;100.00
6565;BME280;3316;44.118;27.258;2022-08-01T04:14:09;100512.38;;;23.44;100.00
6565;BME280;3316;44.118;27.258;2022-08-01T04:16:34;100518.34;;;23.61;100.00
6565;BME280;3316;44.118;27.258;2022-08-01T04:19:00;100507.06;;;23.83;100.00
6565;BME280;3316;44.118;27.258;2022-08-01T04:21:28;100509.47;;;24.00;100.00
6565;BME280;3316;44.118;27.258;2022-08-01T04:23:59;100511.13;;;24.15;100.00
6565;BME280;3316;44.118;27.258;2022-08-01T04:26:29;100509.13;;;24.31;100.00
6565;BME280;3316;44.118;27.258;2022-08-01T04:28:56;100512.06;;;24.53;99.43
6565;BME280;3316;44.118;27.258;2022-08-01T04:31:24;100503.97;;;24.66;97.32
6565;BME280;3316;44.118;27.258;2022-08-01T04:33:52;100505.72;;;24.67;96.77
6565;BME280;3316;44.118;27.258;2022-08-01T04:36:21;100496.66;;;24.43;98.63
6565;BME280;3316;44.118;27.258;2022-08-01T04:38:51;100490.00;;;24.48;96.98
6565;BME280;3316;44.118;27.258;2022-08-01T04:41:18;100508.31;;;24.81;93.21
6565;BME280;3316;44.118;27.258;2022-08-01T04:43:45;100506.00;;;25.25;91.19
6565;BME280;3316;44.118;27.258;2022-08-01T04:46:28;100507.50;;;25.66;87.35
6565;BME280;3316;44.118;27.258;2022-08-01T04:48:55;100506.13;;;26.42;82.26
6565;BME280;3316;44.118;27.258;2022-08-01T04:51:21;100522.06;;;26.91;76.22
6565;BME280;3316;44.118;27.258;2022-08-01T04:53:48;100519.56;;;26.77;72.79
6565;BME280;3316;44.118;27.258;2022-08-01T04:56:14;100515.09;;;26.54;75.49
6565;BME280;3316;44.118;27.258;2022-08-01T04:58:43;100527.81;;;26.86;74.15
6565;BME280;3316;44.118;27.258;2022-08-01T05:01:09;100509.16;;;27.05;71.64
6565;BME280;3316;44.118;27.258;2022-08-01T05:03:35;100521.66;;;27.51;68.31
6565;BME280;3316;44.118;27.258;2022-08-01T05:06:01;100522.00;;;27.68;67.71
6565;BME280;3316;44.118;27.258;2022-08-01T05:08:26;100525.28;;;27.83;66.69
6565;BME280;3316;44.118;27.258;2022-08-01T05:10:52;100510.97;;;27.27;69.25
6565;BME280;3316;44.118;27.258;2022-08-01T05:13:18;100517.28;;;28.24;65.64
6565;BME280;3316;44.118;27.258;2022-08-01T05:15:44;100520.19;;;28.32;64.66
6565;BME280;3316;44.118;27.258;2022-08-01T05:18:09;100500.94;;;28.67;61.37
6565;BME280;3316;44.118;27.258;2022-08-01T05:20:35;100515.16;;;28.48;63.53
6565;BME280;3316;44.118;27.258;2022-08-01T05:23:00;100530.41;;;28.49;62.40
6565;BME280;3316;44.118;27.258;2022-08-01T05:25:26;100526.22;;;28.56;61.88
6565;BME280;3316;44.118;27.258;2022-08-01T05:27:51;100522.59;;;28.67;59.62
6565;BME280;3316;44.118;27.258;2022-08-01T05:30:17;100525.53;;;28.64;56.52
6565;BME280;3316;44.118;27.258;2022-08-01T05:32:42;100527.25;;;27.81;61.50
6565;BME280;3316;44.118;27.258;2022-08-01T05:35:08;100542.56;;;26.93;66.66
6565;BME280;3316;44.118;27.258;2022-08-01T05:37:34;100547.94;;;27.49;66.69
6565;BME280;3316;44.118;27.258;2022-08-01T05:40:00;100542.69;;;27.14;65.50
6565;BME280;3316;44.118;27.258;2022-08-01T05:42:26;100539.84;;;27.04;68.05
6565;BME280;3316;44.118;27.258;2022-08-01T05:44:52;100512.22;;;26.90;69.01
6565;BME280;3316;44.118;27.258;2022-08-01T05:47:17;100532.72;;;27.25;71.67
6565;BME280;3316;44.118;27.258;2022-08-01T05:49:44;100541.69;;;27.26;70.77
6565;BME280;3316;44.118;27.258;2022-08-01T05:52:09;100538.84;;;27.05;70.22
6565;BME280;3316;44.118;27.258;2022-08-01T05:54:35;100538.34;;;26.78;73.44
6565;BME280;3316;44.118;27.258;2022-08-01T05:57:00;100537.16;;;26.48;74.99
6565;BME280;3316;44.118;27.258;2022-08-01T05:59:30;100546.38;;;26.56;75.16
6565;BME280;3316;44.118;27.258;2022-08-01T06:01:56;100549.91;;;26.57;76.68
6565;BME280;3316;44.118;27.258;2022-08-01T06:04:21;100544.22;;;26.72;76.84
6565;BME280;3316;44.118;27.258;2022-08-01T06:06:47;100545.34;;;26.81;74.14
6565;BME280;3316;44.118;27.258;2022-08-01T06:09:13;100543.56;;;26.69;74.66
6565;BME280;3316;44.118;27.258;2022-08-01T06:11:38;100513.13;;;26.44;75.97
6565;BME280;3316;44.118;27.258;2022-08-01T06:14:04;100551.63;;;26.70;76.93
6565;BME280;3316;44.118;27.258;2022-08-01T06:16:29;100540.44;;;26.75;76.12
6565;BME280;3316;44.118;27.258;2022-08-01T06:18:54;100541.13;;;26.66;76.78
6565;BME280;3316;44.118;27.258;2022-08-01T06:21:20;100537.59;;;26.76;74.77
6565;BME280;3316;44.118;27.258;2022-08-01T06:23:45;100542.69;;;26.46;78.30
6565;BME280;3316;44.118;27.258;2022-08-01T06:26:11;100540.88;;;26.23;80.73
6565;BME280;3316;44.118;27.258;2022-08-01T06:28:37;100536.97;;;25.80;84.50
6565;BME280;3316;44.118;27.258;2022-08-01T06:31:03;100526.13;;;25.92;83.94
6565;BME280;3316;44.118;27.258;2022-08-01T06:33:29;100533.25;;;26.17;83.12
6565;BME280;3316;44.118;27.258;2022-08-01T06:35:54;100511.34;;;25.98;81.59
6565;BME280;3316;44.118;27.258;2022-08-01T06:38:20;100529.50;;;25.59;84.62
6565;BME280;3316;44.118;27.258;2022-08-01T06:40:45;100521.81;;;25.42;87.21
6565;BME280;3316;44.118;27.258;2022-08-01T06:43:11;100497.56;;;25.42;87.20
6565;BME280;3316;44.118;27.258;2022-08-01T06:45:37;100522.31;;;25.47;87.88
6565;BME280;3316;44.118;27.258;2022-08-01T06:48:03;100517.97;;;26.05;83.08
6565;BME280;3316;44.118;27.258;2022-08-01T06:50:29;100521.44;;;26.87;75.55
6565;BME280;3316;44.118;27.258;2022-08-01T06:52:54;100516.28;;;27.28;75.84
6565;BME280;3316;44.118;27.258;2022-08-01T06:55:20;100516.84;;;27.54;72.60
6565;BME280;3316;44.118;27.258;2022-08-01T06:57:51;100517.66;;;27.34;73.66
6565;BME280;3316;44.118;27.258;2022-08-01T07:00:18;100518.56;;;27.66;71.29
6565;BME280;3316;44.118;27.258;2022-08-01T07:02:51;100510.09;;;27.91;68.78
6565;BME280;3316;44.118;27.258;2022-08-01T07:05:17;100524.31;;;28.36;67.47
6565;BME280;3316;44.118;27.258;2022-08-01T07:07:42;100518.72;;;28.90;64.67
6565;BME280;3316;44.118;27.258;2022-08-01T07:10:08;100494.09;;;29.33;61.65
6565;BME280;3316;44.118;27.258;2022-08-01T07:12:35;100519.13;;;29.65;59.34
6565;BME280;3316;44.118;27.258;2022-08-01T07:15:03;100514.63;;;29.26;60.43
6565;BME280;3316;44.118;27.258;2022-08-01T07:17:29;100524.28;;;28.88;61.34
6565;BME280;3316;44.118;27.258;2022-08-01T07:19:54;100531.00;;;28.94;59.64
6565;BME280;3316;44.118;27.258;2022-08-01T07:22:20;100516.34;;;28.96;62.33
6565;BME280;3316;44.118;27.258;2022-08-01T07:24:46;100521.22;;;29.33;58.43
6565;BME280;3316;44.118;27.258;2022-08-01T07:27:11;100518.53;;;29.42;57.91
6565;BME280;3316;44.118;27.258;2022-08-01T07:29:37;100510.88;;;29.17;59.35
6565;BME280;3316;44.118;27.258;2022-08-01T07:32:02;100511.72;;;28.87;62.86
6565;BME280;3316;44.118;27.258;2022-08-01T07:34:28;100514.59;;;28.95;61.93
6565;BME280;3316;44.118;27.258;2022-08-01T07:36:53;100489.81;;;28.70;61.62
6565;BME280;3316;44.118;27.258;2022-08-01T07:39:19;100518.00;;;28.88;62.06
6565;BME280;3316;44.118;27.258;2022-08-01T07:41:45;100508.16;;;29.17;59.16
6565;BME280;3316;44.118;27.258;2022-08-01T07:44:10;100513.88;;;28.93;61.38
6565;BME280;3316;44.118;27.258;2022-08-01T07:46:36;100509.25;;;28.75;68.39
6565;BME280;3316;44.118;27.258;2022-08-01T07:49:01;100492.22;;;29.24;66.77
6565;BME280;3316;44.118;27.258;2022-08-01T07:51:27;100519.09;;;29.46;68.07
6565;BME280;3316;44.118;27.258;2022-08-01T07:53:52;100516.00;;;28.90;69.75
6565;BME280;3316;44.118;27.258;2022-08-01T07:56:17;100526.47;;;29.34;68.96
6565;BME280;3316;44.118;27.258;2022-08-01T07:58:43;100511.47;;;29.21;69.94
6565;BME280;3316;44.118;27.258;2022-08-01T08:01:09;100527.41;;;29.54;69.75
6565;BME280;3316;44.118;27.258;2022-08-01T08:03:34;100535.34;;;29.76;68.94
6565;BME280;3316;44.118;27.258;2022-08-01T08:05:59;100515.94;;;29.31;69.01
6565;BME280;3316;44.118;27.258;2022-08-01T08:08:25;100535.66;;;29.43;70.64
6565;BME280;3316;44.118;27.258;2022-08-01T08:10:51;100526.34;;;29.95;68.50
6565;BME280;3316;44.118;27.258;2022-08-01T08:13:16;100542.22;;;30.37;68.24
6565;BME280;3316;44.118;27.258;2022-08-01T08:15:42;100543.31;;;30.92;66.18
6565;BME280;3316;44.118;27.258;2022-08-01T08:18:07;100544.28;;;31.01;64.19
6565;BME280;3316;44.118;27.258;2022-08-01T08:20:33;100534.91;;;30.86;64.76
6565;BME280;3316;44.118;27.258;2022-08-01T08:22:59;100528.50;;;30.58;65.61
6565;BME280;3316;44.118;27.258;2022-08-01T08:25:25;100543.66;;;30.51;67.95
6565;BME280;3316;44.118;27.258;2022-08-01T08:27:51;100526.66;;;30.49;66.12
6565;BME280;3316;44.118;27.258;2022-08-01T08:30:17;100531.03;;;30.69;64.70
6565;BME280;3316;44.118;27.258;2022-08-01T08:32:43;100543.34;;;31.19;61.10
6565;BME280;3316;44.118;27.258;2022-08-01T08:35:09;100535.84;;;31.68;57.40
6565;BME280;3316;44.118;27.258;2022-08-01T08:37:35;100546.84;;;31.93;54.97
6565;BME280;3316;44.118;27.258;2022-08-01T08:40:01;100534.13;;;31.67;56.57
6565;BME280;3316;44.118;27.258;2022-08-01T08:42:27;100544.47;;;30.90;59.85
6565;BME280;3316;44.118;27.258;2022-08-01T08:44:52;100535.81;;;30.38;64.78
6565;BME280;3316;44.118;27.258;2022-08-01T08:47:21;100525.78;;;30.10;66.41
6565;BME280;3316;44.118;27.258;2022-08-01T08:49:49;100532.63;;;30.24;67.54
6565;BME280;3316;44.118;27.258;2022-08-01T08:52:15;100533.19;;;30.85;64.92
6565;BME280;3316;44.118;27.258;2022-08-01T08:54:42;100538.56;;;31.04;64.61
6565;BME280;3316;44.118;27.258;2022-08-01T08:57:10;100534.53;;;31.08;64.02
6565;BME280;3316;44.118;27.258;2022-08-01T08:59:36;100540.59;;;31.29;63.52
6565;BME280;3316;44.118;27.258;2022-08-01T09:02:02;100542.53;;;31.19;65.14
6565;BME280;3316;44.118;27.258;2022-08-01T09:04:30;100545.19;;;31.28;64.36
6565;BME280;3316;44.118;27.258;2022-08-01T09:06:56;100541.28;;;31.31;64.15
6565;BME280;3316;44.118;27.258;2022-08-01T09:09:22;100547.31;;;31.34;63.11
6565;BME280;3316;44.118;27.258;2022-08-01T09:11:48;100539.53;;;31.12;64.50
6565;BME280;3316;44.118;27.258;2022-08-01T09:14:16;100540.13;;;31.06;65.96
6565;BME280;3316;44.118;27.258;2022-08-01T09:17:07;100536.91;;;30.84;68.03
6565;BME280;3316;44.118;27.258;2022-08-01T09:19:39;100548.53;;;30.47;75.22
6565;BME280;3316;44.118;27.258;2022-08-01T09:22:13;100544.97;;;30.28;75.08
6565;BME280;3316;44.118;27.258;2022-08-01T09:24:40;100532.63;;;30.24;76.38
6565;BME280;3316;44.118;27.258;2022-08-01T09:27:21;100535.81;;;30.38;76.05
6565;BME280;3316;44.118;27.258;2022-08-01T09:29:51;100541.91;;;29.83;80.39
6565;BME280;3316;44.118;27.258;2022-08-01T09:32:17;100539.19;;;28.83;87.79
6565;BME280;3316;44.118;27.258;2022-08-01T09:34:43;100540.88;;;28.74;92.41
6565;BME280;3316;44.118;27.258;2022-08-01T09:37:09;100537.91;;;29.77;85.09
6565;BME280;3316;44.118;27.258;2022-08-01T09:39:36;100544.66;;;30.50;80.28
6565;BME280;3316;44.118;27.258;2022-08-01T09:42:22;100533.91;;;30.67;78.62
6565;BME280;3316;44.118;27.258;2022-08-01T09:44:48;100540.34;;;30.66;80.54
6565;BME280;3316;44.118;27.258;2022-08-01T09:47:14;100550.75;;;31.27;77.71
6565;BME280;3316;44.118;27.258;2022-08-01T09:49:42;100539.16;;;31.25;76.83
6565;BME280;3316;44.118;27.258;2022-08-01T09:52:22;100547.31;;;31.25;74.34
6565;BME280;3316;44.118;27.258;2022-08-01T09:55:02;100514.69;;;30.98;77.31
6565;BME280;3316;44.118;27.258;2022-08-01T09:57:29;100538.81;;;30.54;79.78
6565;BME280;3316;44.118;27.258;2022-08-01T09:59:56;100539.56;;;31.03;78.00
6565;BME280;3316;44.118;27.258;2022-08-01T10:02:34;100546.78;;;31.21;73.54
6565;BME280;3316;44.118;27.258;2022-08-01T10:05:06;100541.25;;;31.04;75.75
6565;BME280;3316;44.118;27.258;2022-08-01T10:07:32;100518.34;;;29.93;83.95
6565;BME280;3316;44.118;27.258;2022-08-01T10:10:12;100538.22;;;29.94;83.59
6565;BME280;3316;44.118;27.258;2022-08-01T10:12:39;100535.69;;;29.62;81.56
6565;BME280;3316;44.118;27.258;2022-08-01T10:15:05;100523.16;;;29.70;83.41
6565;BME280;3316;44.118;27.258;2022-08-01T10:17:32;100525.78;;;30.01;81.14
6565;BME280;3316;44.118;27.258;2022-08-01T10:20:01;100530.25;;;30.30;78.64
6565;BME280;3316;44.118;27.258;2022-08-01T10:22:30;100527.38;;;30.41;80.74
6565;BME280;3316;44.118;27.258;2022-08-01T10:24:56;100536.06;;;30.64;82.02
6565;BME280;3316;44.118;27.258;2022-08-01T10:27:24;100536.50;;;30.59;82.29
6565;BME280;3316;44.118;27.258;2022-08-01T10:30:00;100540.94;;;30.13;83.90
6565;BME280;3316;44.118;27.258;2022-08-01T10:32:33;100537.00;;;29.67;86.08
6565;BME280;3316;44.118;27.258;2022-08-01T10:35:02;100528.97;;;29.47;86.92
6565;BME280;3316;44.118;27.258;2022-08-01T10:37:28;100516.88;;;29.21;88.89
6565;BME280;3316;44.118;27.258;2022-08-01T10:39:54;100523.41;;;29.18;90.25
6565;BME280;3316;44.118;27.258;2022-08-01T10:42:20;100519.22;;;29.35;90.35
6565;BME280;3316;44.118;27.258;2022-08-01T10:44:47;100527.22;;;29.95;86.46
6565;BME280;3316;44.118;27.258;2022-08-01T10:47:22;100524.91;;;29.91;83.73
6565;BME280;3316;44.118;27.258;2022-08-01T10:50:16;100538.22;;;30.03;88.52
6565;BME280;3316;44.118;27.258;2022-08-01T10:53:21;100545.63;;;29.42;100.00
6565;BME280;3316;44.118;27.258;2022-08-01T10:58:33;100537.16;;;27.38;100.00
6565;BME280;3316;44.118;27.258;2022-08-01T11:03:43;100519.63;;;26.53;100.00
6565;BME280;3316;44.118;27.258;2022-08-01T11:06:24;100497.28;;;26.40;100.00
6565;BME280;3316;44.118;27.258;2022-08-01T11:08:52;100546.56;;;26.88;100.00
6565;BME280;3316;44.118;27.258;2022-08-01T11:11:18;100543.91;;;27.32;100.00
6565;BME280;3316;44.118;27.258;2022-08-01T11:16:39;100550.13;;;28.40;100.00
6565;BME280;3316;44.118;27.258;2022-08-01T11:19:06;100544.56;;;28.73;100.00
6565;BME280;3316;44.118;27.258;2022-08-01T11:27:40;100538.94;;;28.65;100.00
6565;BME280;3316;44.118;27.258;2022-08-01T11:35:10;100533.38;;;27.83;100.00
6565;BME280;3316;44.118;27.258;2022-08-01T11:37:36;100522.91;;;28.00;100.00
6565;BME280;3316;44.118;27.258;2022-08-01T11:40:18;100524.91;;;27.76;100.00
6565;BME280;3316;44.118;27.258;2022-08-01T11:42:44;100528.91;;;27.61;100.00
6565;BME280;3316;44.118;27.258;2022-08-01T11:45:09;100523.09;;;27.77;100.00
6565;BME280;3316;44.118;27.258;2022-08-01T11:47:50;100521.97;;;28.22;100.00
6565;BME280;3316;44.118;27.258;2022-08-01T11:52:59;100515.19;;;28.69;100.00
6565;BME280;3316;44.118;27.258;2022-08-01T11:55:27;100514.03;;;28.71;100.00
6565;BME280;3316;44.118;27.258;2022-08-01T11:58:06;100516.69;;;28.82;100.00
6565;BME280;3316;44.118;27.258;2022-08-01T12:00:33;100515.63;;;28.53;100.00
6565;BME280;3316;44.118;27.258;2022-08-01T12:03:05;100532.66;;;28.85;100.00
6565;BME280;3316;44.118;27.258;2022-08-01T12:05:33;100536.78;;;29.10;100.00
6565;BME280;3316;44.118;27.258;2022-08-01T12:08:00;100527.97;;;28.87;100.00
6565;BME280;3316;44.118;27.258;2022-08-01T12:10:34;100537.81;;;28.47;100.00
6565;BME280;3316;44.118;27.258;2022-08-01T12:13:05;100541.41;;;28.16;100.00
6565;BME280;3316;44.118;27.258;2022-08-01T12:15:33;100530.78;;;27.92;100.00
6565;BME280;3316;44.118;27.258;2022-08-01T12:18:01;100546.44;;;27.67;100.00
6565;BME280;3316;44.118;27.258;2022-08-01T12:20:29;100543.66;;;27.57;100.00
6565;BME280;3316;44.118;27.258;2022-08-01T12:22:56;100555.81;;;27.52;100.00
6565;BME280;3316;44.118;27.258;2022-08-01T12:25:22;100552.03;;;27.43;100.00
6565;BME280;3316;44.118;27.258;2022-08-01T12:27:49;100552.66;;;27.36;100.00
6565;BME280;3316;44.118;27.258;2022-08-01T12:30:19;100548.34;;;27.33;100.00
6565;BME280;3316;44.118;27.258;2022-08-01T12:32:48;100553.25;;;27.39;100.00
6565;BME280;3316;44.118;27.258;2022-08-01T12:35:16;100554.34;;;27.37;100.00
6565;BME280;3316;44.118;27.258;2022-08-01T12:37:47;100548.59;;;27.19;100.00
6565;BME280;3316;44.118;27.258;2022-08-01T12:42:42;100513.44;;;26.29;100.00
6565;BME280;3316;44.118;27.258;2022-08-01T12:45:11;100537.66;;;26.18;100.00
6565;BME280;3316;44.118;27.258;2022-08-01T12:47:38;100515.97;;;26.54;100.00
6565;BME280;3316;44.118;27.258;2022-08-01T12:50:12;100533.06;;;26.88;100.00
6565;BME280;3316;44.118;27.258;2022-08-01T12:52:38;100529.03;;;27.04;100.00
6565;BME280;3316;44.118;27.258;2022-08-01T12:57:30;100529.78;;;27.17;100.00
6565;BME280;3316;44.118;27.258;2022-08-01T13:02:33;100517.50;;;27.89;100.00
6565;BME280;3316;44.118;27.258;2022-08-01T13:04:59;100504.91;;;28.31;100.00
6565;BME280;3316;44.118;27.258;2022-08-01T13:08:00;100519.66;;;28.79;100.00
6565;BME280;3316;44.118;27.258;2022-08-01T13:10:34;100524.69;;;29.54;93.63
6565;BME280;3316;44.118;27.258;2022-08-01T13:13:00;100519.44;;;29.62;100.00
6565;BME280;3316;44.118;27.258;2022-08-01T13:15:31;100520.47;;;29.70;99.08
6565;BME280;3316;44.118;27.258;2022-08-01T13:17:59;100521.47;;;29.79;97.47
6565;BME280;3316;44.118;27.258;2022-08-01T13:20:32;100525.50;;;30.13;98.12
6565;BME280;3316;44.118;27.258;2022-08-01T13:23:18;100522.19;;;29.91;96.28
6565;BME280;3316;44.118;27.258;2022-08-01T13:25:53;100522.34;;;29.79;94.21
6565;BME280;3316;44.118;27.258;2022-08-01T13:28:23;100505.19;;;29.30;96.83
6565;BME280;3316;44.118;27.258;2022-08-01T13:30:54;100528.50;;;29.12;98.43
6565;BME280;3316;44.118;27.258;2022-08-01T13:33:20;100509.63;;;29.21;99.20
6565;BME280;3316;44.118;27.258;2022-08-01T13:35:46;100523.19;;;29.31;99.26
6565;BME280;3316;44.118;27.258;2022-08-01T13:38:13;100521.28;;;28.91;100.00
6565;BME280;3316;44.118;27.258;2022-08-01T13:40:38;100536.09;;;28.87;100.00
6565;BME280;3316;44.118;27.258;2022-08-01T13:43:04;100534.28;;;28.97;100.00
6565;BME280;3316;44.118;27.258;2022-08-01T13:45:29;100522.34;;;28.79;100.00